Time;durP1;ratioP1;P1;durP2;ratioP2;P2;SDS_P1;SDS_P2;PMS_P1;PMS_P2;Temp;Humidity;BMP_temperature;BMP_pressure;BME280_temperature;BME280_humidity;BME280_pressure;Samples;Min_cycle;Max_cycle;Signal;HPM_P1;HPM_P2
2021/06/28 00:00:43;;;;;;;4.38;3.05;;;21.20;82.40;;;;;;5057495;28;20253;-74
2021/06/28 00:03:10;;;;;;;3.28;3.08;;;21.20;82.30;;;;;;5066396;28;20191;-73
2021/06/28 00:05:36;;;;;;;4.30;3.95;;;21.10;82.40;;;;;;5065167;28;20218;-74
2021/06/28 00:08:02;;;;;;;3.92;3.58;;;21.00;82.80;;;;;;5063149;28;20187;-73
2021/06/28 00:10:30;;;;;;;4.00;3.50;;;21.00;82.80;;;;;;5065635;28;20188;-73
2021/06/28 00:12:59;;;;;;;3.35;3.15;;;21.00;82.90;;;;;;5066015;28;20178;-73
2021/06/28 00:15:31;;;;;;;4.20;3.72;;;20.90;83.00;;;;;;5066595;28;20202;-73
2021/06/28 00:17:56;;;;;;;5.90;3.85;;;20.90;82.90;;;;;;5065507;28;20183;-73
2021/06/28 00:20:22;;;;;;;3.78;3.45;;;20.90;83.20;;;;;;5066456;28;20217;-73
2021/06/28 00:22:49;;;;;;;3.83;3.42;;;20.90;83.30;;;;;;5062601;28;20248;-73
2021/06/28 00:25:20;;;;;;;3.90;3.58;;;20.80;83.60;;;;;;5061121;28;20198;-73
2021/06/28 00:27:47;;;;;;;3.20;3.00;;;20.80;83.30;;;;;;5066085;28;20186;-73
2021/06/28 00:30:15;;;;;;;3.80;3.50;;;20.80;83.90;;;;;;5059424;28;20267;-73
2021/06/28 00:32:41;;;;;;;5.10;3.50;;;20.70;83.60;;;;;;5056329;28;20191;-73
2021/06/28 00:35:08;;;;;;;4.00;3.65;;;20.70;83.50;;;;;;5066392;28;20186;-73
2021/06/28 00:37:35;;;;;;;3.17;3.08;;;20.60;83.70;;;;;;5063775;28;20183;-73
2021/06/28 00:40:01;;;;;;;2.97;2.88;;;20.60;83.80;;;;;;5065833;28;20237;-73
2021/06/28 00:42:27;;;;;;;4.18;3.88;;;20.60;83.80;;;;;;5065832;28;20653;-73
2021/06/28 00:44:53;;;;;;;3.65;3.45;;;20.60;84.10;;;;;;5064338;28;20221;-73
2021/06/28 00:47:21;;;;;;;3.95;3.60;;;20.50;84.20;;;;;;5064338;28;20184;-73
2021/06/28 00:49:47;;;;;;;4.05;3.75;;;20.50;83.90;;;;;;5066359;28;20217;-73
2021/06/28 00:52:14;;;;;;;4.47;3.67;;;20.50;84.50;;;;;;5066495;28;20201;-73
2021/06/28 00:54:41;;;;;;;4.15;3.78;;;20.50;84.40;;;;;;5066277;28;20694;-73
2021/06/28 00:57:07;;;;;;;3.30;3.10;;;20.40;84.30;;;;;;5059287;28;20841;-73
2021/06/28 00:59:33;;;;;;;3.83;3.50;;;20.40;84.30;;;;;;5063170;28;20238;-73
2021/06/28 01:02:02;;;;;;;3.20;3.10;;;20.40;84.80;;;;;;5065038;28;20574;-74
2021/06/28 01:04:31;;;;;;;3.15;3.05;;;20.30;84.70;;;;;;5066900;28;20171;-73
2021/06/28 01:06:57;;;;;;;3.60;3.30;;;20.30;84.60;;;;;;5066073;28;20255;-74
2021/06/28 01:09:24;;;;;;;3.42;3.22;;;20.20;85.20;;;;;;5068286;28;20197;-73
2021/06/28 01:11:50;;;;;;;3.45;3.13;;;20.20;84.90;;;;;;5067179;28;20549;-73
2021/06/28 01:14:17;;;;;;;3.17;3.08;;;20.20;84.90;;;;;;5066759;28;20248;-73
2021/06/28 01:16:44;;;;;;;2.97;2.75;;;20.10;85.00;;;;;;5065938;28;20194;-73
2021/06/28 01:19:15;;;;;;;3.45;3.25;;;20.10;85.20;;;;;;5062208;28;20191;-73
2021/06/28 01:21:42;;;;;;;4.20;3.15;;;20.00;84.90;;;;;;5061622;28;20179;-74
2021/06/28 01:24:09;;;;;;;3.17;3.08;;;20.00;84.90;;;;;;5066317;28;20271;-73
2021/06/28 01:26:35;;;;;;;3.03;2.88;;;19.90;84.80;;;;;;5069547;28;20209;-73
2021/06/28 01:29:01;;;;;;;3.17;2.97;;;19.90;85.10;;;;;;5070407;28;20187;-73
2021/06/28 01:31:26;;;;;;;4.18;3.58;;;19.80;85.20;;;;;;5067167;28;20694;-72
2021/06/28 01:33:52;;;;;;;2.80;2.60;;;19.70;85.50;;;;;;5068925;28;20656;-73
2021/06/28 01:36:18;;;;;;;4.07;2.80;;;19.70;85.50;;;;;;5066175;28;20197;-73
2021/06/28 01:38:43;;;;;;;3.70;3.50;;;19.70;85.60;;;;;;5073275;28;20215;-73
2021/06/28 01:41:09;;;;;;;2.72;2.63;;;19.70;85.60;;;;;;5062368;28;20237;-73
2021/06/28 01:43:35;;;;;;;3.05;2.90;;;19.60;85.60;;;;;;5066211;28;20187;-73
2021/06/28 01:46:01;;;;;;;5.28;2.75;;;19.60;85.80;;;;;;5068938;28;20214;-73
2021/06/28 01:48:26;;;;;;;2.90;2.78;;;19.50;85.90;;;;;;5065926;28;20186;-73
2021/06/28 01:50:53;;;;;;;3.30;3.05;;;19.50;86.10;;;;;;5079539;28;21011;-73
2021/06/28 01:53:19;;;;;;;4.97;2.75;;;19.40;86.20;;;;;;5078215;28;20286;-74
2021/06/28 01:55:45;;;;;;;3.50;2.88;;;19.40;86.40;;;;;;5068843;28;20579;-73
2021/06/28 01:58:15;;;;;;;6.15;3.08;;;19.30;86.40;;;;;;5064349;28;20290;-73
2021/06/28 02:00:45;;;;;;;2.60;2.45;;;19.30;86.70;;;;;;5062460;28;20215;-73
2021/06/28 02:03:18;;;;;;;3.20;2.90;;;19.20;85.70;;;;;;5063863;28;20187;-73
2021/06/28 02:05:52;;;;;;;2.78;2.67;;;19.20;85.60;;;;;;5068003;28;20207;-73
2021/06/28 02:08:19;;;;;;;4.10;2.90;;;19.10;85.80;;;;;;5066839;28;20182;-73
2021/06/28 02:10:49;;;;;;;2.70;2.60;;;19.10;86.30;;;;;;5067485;28;20240;-73
2021/06/28 02:13:20;;;;;;;3.10;2.75;;;19.00;86.40;;;;;;5067287;28;20269;-73
2021/06/28 02:15:46;;;;;;;2.58;2.47;;;19.00;86.30;;;;;;5067303;28;20226;-73
2021/06/28 02:18:12;;;;;;;3.83;3.05;;;19.00;86.60;;;;;;5065175;28;20183;-73
2021/06/28 02:20:37;;;;;;;3.00;2.80;;;18.90;86.80;;;;;;5065468;28;20193;-74
2021/06/28 02:23:21;;;;;;;3.17;3.00;;;18.90;86.70;;;;;;5073565;28;20270;-73
2021/06/28 02:26:11;;;;;;;3.03;2.83;;;18.90;86.90;;;;;;5067236;28;20226;-73
2021/06/28 02:28:39;;;;;;;2.92;2.83;;;18.90;86.20;;;;;;5067348;28;20265;-73
2021/06/28 02:31:08;;;;;;;3.45;3.13;;;18.80;86.60;;;;;;5067491;28;20187;-73
2021/06/28 02:33:36;;;;;;;3.08;2.83;;;18.80;86.60;;;;;;5068817;28;20175;-73
2021/06/28 02:36:02;;;;;;;2.58;2.47;;;18.80;86.70;;;;;;5066935;28;20197;-73
2021/06/28 02:38:28;;;;;;;3.10;2.70;;;18.80;86.60;;;;;;5067713;28;20953;-73
2021/06/28 02:40:54;;;;;;;2.97;2.70;;;18.70;86.70;;;;;;5058741;28;20689;-73
2021/06/28 02:43:21;;;;;;;2.00;2.00;;;18.70;86.70;;;;;;5067966;28;20675;-73
2021/06/28 02:45:47;;;;;;;2.58;2.45;;;18.70;86.70;;;;;;5068120;28;20310;-73
2021/06/28 02:48:13;;;;;;;2.47;2.38;;;18.70;86.60;;;;;;5065630;28;20186;-73
2021/06/28 02:50:39;;;;;;;2.50;2.40;;;18.60;86.90;;;;;;5065612;28;20186;-73
2021/06/28 02:53:06;;;;;;;6.40;3.13;;;18.60;87.20;;;;;;5067000;28;20190;-73
2021/06/28 02:55:32;;;;;;;3.25;3.15;;;18.60;87.20;;;;;;5068202;28;21125;-73
2021/06/28 02:57:58;;;;;;;2.70;2.60;;;18.60;87.50;;;;;;5064783;28;20179;-73
2021/06/28 03:00:24;;;;;;;7.53;3.13;;;18.60;87.70;;;;;;5066522;28;20285;-73
2021/06/28 03:02:50;;;;;;;3.50;3.10;;;18.60;87.70;;;;;;5060354;28;20351;-73
2021/06/28 03:05:16;;;;;;;2.85;2.67;;;18.60;87.80;;;;;;5067913;28;20211;-73
2021/06/28 03:07:42;;;;;;;2.85;2.42;;;18.60;87.80;;;;;;5068158;28;20680;-73
2021/06/28 03:10:11;;;;;;;2.70;2.60;;;18.60;87.70;;;;;;5067729;28;20187;-73
2021/06/28 03:12:37;;;;;;;3.13;2.75;;;18.60;87.40;;;;;;5063354;28;20628;-73
2021/06/28 03:15:10;;;;;;;2.60;2.50;;;18.60;87.40;;;;;;5067797;28;20195;-73
2021/06/28 03:17:36;;;;;;;3.65;2.72;;;18.60;86.80;;;;;;5065690;28;20627;-73
2021/06/28 03:20:07;;;;;;;3.03;2.85;;;18.60;87.00;;;;;;5059582;28;20763;-73
2021/06/28 03:22:33;;;;;;;2.97;2.78;;;18.60;87.10;;;;;;5063722;28;20187;-73
2021/06/28 03:24:59;;;;;;;2.90;2.70;;;18.50;87.30;;;;;;5064839;28;20211;-73
2021/06/28 03:27:25;;;;;;;2.95;2.75;;;18.50;87.40;;;;;;5065299;28;20607;-73
2021/06/28 03:29:51;;;;;;;3.03;2.90;;;18.50;87.30;;;;;;5059527;28;20225;-73
2021/06/28 03:32:16;;;;;;;3.10;2.88;;;18.50;87.90;;;;;;5057798;28;20270;-73
2021/06/28 03:34:43;;;;;;;3.65;3.30;;;18.40;88.10;;;;;;5061875;28;20679;-73
2021/06/28 03:37:09;;;;;;;3.05;2.70;;;18.40;88.20;;;;;;5062613;28;20297;-73
2021/06/28 03:39:34;;;;;;;3.08;2.88;;;18.40;88.10;;;;;;5064627;28;20183;-72
2021/06/28 03:42:00;;;;;;;3.20;3.10;;;18.40;88.20;;;;;;5066055;28;20262;-73
2021/06/28 03:44:25;;;;;;;3.08;2.80;;;18.40;88.20;;;;;;5067642;28;20202;-73
2021/06/28 03:46:51;;;;;;;4.10;2.67;;;18.40;88.30;;;;;;5064559;28;20191;-72
2021/06/28 03:49:17;;;;;;;2.47;2.38;;;18.50;88.20;;;;;;5066959;28;20221;-73
2021/06/28 03:51:42;;;;;;;3.67;2.60;;;18.50;88.40;;;;;;5062114;28;20198;-73
2021/06/28 03:54:08;;;;;;;2.88;2.70;;;18.50;88.40;;;;;;5065870;28;20186;-73
2021/06/28 03:56:34;;;;;;;2.83;2.72;;;18.60;88.40;;;;;;5061873;28;20194;-73
2021/06/28 03:59:00;;;;;;;3.40;3.10;;;18.60;88.30;;;;;;5069444;28;20197;-72
2021/06/28 04:01:25;;;;;;;3.05;2.85;;;18.60;88.00;;;;;;5060112;28;20270;-71
2021/06/28 04:03:53;;;;;;;4.60;2.58;;;18.60;87.80;;;;;;5061982;28;20226;-72
2021/06/28 04:06:19;;;;;;;2.55;2.47;;;18.60;87.60;;;;;;5062761;28;20211;-73
2021/06/28 04:08:45;;;;;;;2.55;2.45;;;18.70;87.30;;;;;;5082297;28;20179;-73
2021/06/28 04:11:11;;;;;;;2.08;2.08;;;18.70;87.10;;;;;;5067750;28;20178;-73
2021/06/28 04:13:37;;;;;;;2.60;2.40;;;18.70;86.70;;;;;;5062285;28;20183;-71
2021/06/28 04:16:04;;;;;;;2.72;2.50;;;18.70;86.30;;;;;;5063280;28;20199;-71
2021/06/28 04:18:30;;;;;;;3.80;2.70;;;18.80;86.10;;;;;;5061405;28;20270;-71
2021/06/28 04:20:56;;;;;;;3.50;2.33;;;18.80;86.10;;;;;;5062492;28;20206;-73
2021/06/28 04:23:22;;;;;;;2.65;2.55;;;18.80;85.90;;;;;;5065196;28;20232;-73
2021/06/28 04:25:48;;;;;;;2.80;2.20;;;18.80;86.00;;;;;;5065019;28;20234;-74
2021/06/28 04:28:13;;;;;;;2.13;2.10;;;18.90;86.10;;;;;;5065116;28;20277;-73
2021/06/28 04:30:39;;;;;;;2.50;2.30;;;18.90;86.00;;;;;;5065076;28;20186;-74
2021/06/28 04:33:05;;;;;;;2.90;2.70;;;18.90;85.90;;;;;;5066193;28;20187;-73
2021/06/28 04:35:32;;;;;;;2.20;2.20;;;19.00;85.90;;;;;;5059805;28;20244;-73
2021/06/28 04:37:58;;;;;;;3.05;2.90;;;19.00;86.00;;;;;;5066864;28;20199;-73
2021/06/28 04:40:27;;;;;;;2.72;2.53;;;19.00;86.10;;;;;;5063187;28;20184;-74
2021/06/28 04:42:53;;;;;;;2.42;2.33;;;19.10;86.00;;;;;;5065667;28;20191;-74
2021/06/28 04:45:20;;;;;;;3.40;2.83;;;19.10;86.40;;;;;;5069557;28;20225;-75
2021/06/28 04:47:48;;;;;;;3.05;2.92;;;19.20;86.20;;;;;;5068923;28;20664;-75
2021/06/28 04:50:15;;;;;;;2.92;2.75;;;19.20;86.10;;;;;;5084985;28;20191;-76
2021/06/28 04:52:41;;;;;;;3.20;3.00;;;19.20;86.10;;;;;;5070559;28;20187;-75
2021/06/28 04:55:10;;;;;;;3.22;2.97;;;19.30;86.80;;;;;;5066875;28;20188;-76
2021/06/28 04:57:37;;;;;;;5.13;3.63;;;19.30;85.70;;;;;;5067480;28;20266;-75
2021/06/28 05:00:05;;;;;;;3.10;3.00;;;19.30;85.50;;;;;;5074100;28;20668;-74
2021/06/28 05:02:30;;;;;;;3.60;3.00;;;19.40;85.70;;;;;;5072103;28;20183;-73
2021/06/28 05:04:56;;;;;;;2.88;2.63;;;19.40;85.40;;;;;;5065360;28;20198;-73
2021/06/28 05:07:21;;;;;;;4.10;3.35;;;19.50;85.50;;;;;;5069306;28;20179;-73
2021/06/28 05:09:47;;;;;;;3.92;3.47;;;19.50;86.00;;;;;;5064029;28;20236;-73
2021/06/28 05:12:15;;;;;;;2.80;2.70;;;19.50;85.70;;;;;;5069947;28;20257;-72
2021/06/28 05:14:41;;;;;;;3.67;3.33;;;19.60;85.40;;;;;;5070483;28;20208;-73
2021/06/28 05:17:08;;;;;;;8.20;3.80;;;19.60;85.20;;;;;;5070221;28;20679;-73
2021/06/28 05:19:34;;;;;;;5.95;3.88;;;19.70;85.20;;;;;;5066289;28;20182;-73
2021/06/28 05:22:00;;;;;;;3.72;3.55;;;19.70;85.30;;;;;;5068278;28;20181;-72
2021/06/28 05:24:26;;;;;;;4.32;3.92;;;19.70;85.30;;;;;;5068156;28;20617;-73
2021/06/28 05:26:52;;;;;;;6.15;4.25;;;19.80;85.30;;;;;;5067787;28;20212;-73
2021/06/28 05:29:18;;;;;;;4.18;3.88;;;19.80;85.00;;;;;;5069645;28;20175;-72
2021/06/28 05:31:43;;;;;;;3.92;3.55;;;19.90;85.00;;;;;;5067867;28;20248;-72
2021/06/28 05:34:09;;;;;;;3.42;3.33;;;19.90;84.60;;;;;;5068861;28;20624;-72
2021/06/28 05:36:35;;;;;;;6.05;3.30;;;20.00;85.00;;;;;;5067456;28;20191;-72
2021/06/28 05:39:01;;;;;;;3.25;3.15;;;20.00;84.90;;;;;;5067308;28;20183;-73
2021/06/28 05:41:27;;;;;;;3.17;2.90;;;20.10;84.80;;;;;;5067160;28;20183;-73
2021/06/28 05:43:52;;;;;;;4.05;3.75;;;20.10;84.60;;;;;;5068643;28;20248;-72
2021/06/28 05:46:18;;;;;;;3.47;3.38;;;20.20;84.40;;;;;;5068543;28;20215;-73
2021/06/28 05:48:44;;;;;;;5.55;3.65;;;20.20;84.40;;;;;;5065609;28;20175;-74
2021/06/28 05:51:09;;;;;;;4.47;4.20;;;20.30;84.30;;;;;;5069010;28;20700;-73
2021/06/28 05:53:35;;;;;;;4.03;3.63;;;20.30;84.60;;;;;;5069141;28;20273;-73
2021/06/28 05:56:02;;;;;;;3.80;3.50;;;20.40;83.70;;;;;;5069413;28;20652;-73
2021/06/28 05:58:29;;;;;;;4.25;3.92;;;20.50;83.20;;;;;;5069398;28;20182;-73
2021/06/28 06:00:56;;;;;;;4.00;3.70;;;20.50;82.90;;;;;;5068235;28;20183;-73
2021/06/28 06:03:22;;;;;;;3.72;3.50;;;20.60;83.10;;;;;;5069258;28;20186;-73
2021/06/28 06:05:48;;;;;;;3.92;3.70;;;20.60;83.10;;;;;;5069074;28;20217;-73
2021/06/28 06:08:14;;;;;;;6.47;3.90;;;20.70;82.80;;;;;;5069091;28;20187;-72
2021/06/28 06:10:40;;;;;;;4.40;4.20;;;20.70;82.20;;;;;;5069031;28;20186;-73
2021/06/28 06:13:06;;;;;;;6.05;4.45;;;20.80;81.90;;;;;;5076013;28;20183;-73
2021/06/28 06:15:31;;;;;;;4.25;3.92;;;20.80;82.20;;;;;;5068955;28;20701;-73
2021/06/28 06:17:57;;;;;;;4.40;4.05;;;20.90;81.50;;;;;;5055600;28;20186;-73
2021/06/28 06:20:23;;;;;;;5.35;4.28;;;21.00;81.30;;;;;;5068998;28;20189;-73
2021/06/28 06:22:49;;;;;;;5.88;4.45;;;21.00;80.80;;;;;;5064941;28;20181;-72
2021/06/28 06:25:15;;;;;;;5.20;4.20;;;21.00;80.90;;;;;;5067564;28;20293;-72
2021/06/28 06:27:41;;;;;;;4.07;3.75;;;21.00;80.50;;;;;;5067719;28;20252;-72
2021/06/28 06:30:08;;;;;;;4.13;3.85;;;21.10;81.00;;;;;;5067376;28;20681;-73
2021/06/28 06:32:34;;;;;;;6.82;4.68;;;21.20;80.60;;;;;;5067109;28;20218;-73
2021/06/28 06:35:00;;;;;;;4.70;4.35;;;21.20;80.50;;;;;;5067349;28;20667;-73
2021/06/28 06:37:25;;;;;;;4.82;3.85;;;21.30;80.20;;;;;;5067448;28;20179;-73
2021/06/28 06:39:52;;;;;;;3.80;3.50;;;21.40;80.30;;;;;;5066407;28;20203;-74
2021/06/28 06:42:18;;;;;;;7.82;4.47;;;21.40;80.60;;;;;;5066279;28;20183;-73
2021/06/28 06:44:44;;;;;;;4.28;3.88;;;21.50;80.40;;;;;;5067048;28;20183;-73
2021/06/28 06:47:10;;;;;;;3.97;3.67;;;21.60;80.60;;;;;;5070361;28;20180;-73
2021/06/28 06:49:35;;;;;;;4.78;4.28;;;21.70;80.80;;;;;;5079077;28;20186;-73
2021/06/28 06:52:01;;;;;;;3.78;3.47;;;21.70;81.10;;;;;;5070800;28;20189;-73
2021/06/28 06:54:27;;;;;;;3.85;3.55;;;21.80;80.90;;;;;;5079317;28;20598;-73
2021/06/28 06:56:52;;;;;;;4.30;3.35;;;21.90;80.40;;;;;;5069894;28;20664;-73
2021/06/28 06:59:18;;;;;;;4.32;3.75;;;22.00;80.30;;;;;;5066982;28;20175;-72
2021/06/28 07:01:44;;;;;;;3.50;3.38;;;22.10;80.80;;;;;;5065114;28;20187;-72
2021/06/28 07:04:10;;;;;;;3.72;3.58;;;22.20;80.30;;;;;;5077631;28;20214;-72
2021/06/28 07:06:35;;;;;;;7.07;3.65;;;22.30;80.40;;;;;;5065809;28;20214;-72
2021/06/28 07:09:03;;;;;;;5.15;4.75;;;22.30;79.40;;;;;;5066997;28;20205;-72
2021/06/28 07:11:28;;;;;;;3.58;3.45;;;22.40;78.60;;;;;;5065700;28;20183;-72
2021/06/28 07:13:54;;;;;;;4.20;3.38;;;22.50;78.20;;;;;;5072013;28;20792;-73
2021/06/28 07:16:24;;;;;;;3.47;3.28;;;22.50;78.10;;;;;;5070827;28;20604;-73
2021/06/28 07:18:49;;;;;;;3.92;3.72;;;22.60;78.50;;;;;;5070212;28;20375;-72
2021/06/28 07:21:15;;;;;;;3.15;3.05;;;22.70;78.80;;;;;;5066857;28;20431;-73
2021/06/28 07:23:41;;;;;;;4.88;3.67;;;22.80;78.20;;;;;;5066424;28;20179;-72
2021/06/28 07:26:07;;;;;;;5.88;3.35;;;22.90;78.20;;;;;;5066244;28;20295;-72
2021/06/28 07:28:33;;;;;;;3.65;3.15;;;22.90;77.40;;;;;;5066433;28;20187;-73
2021/06/28 07:31:00;;;;;;;2.67;2.40;;;23.00;77.20;;;;;;5066225;28;20918;-73
2021/06/28 07:33:27;;;;;;;2.50;2.40;;;23.10;75.90;;;;;;5066129;28;20620;-73
2021/06/28 07:35:54;;;;;;;2.20;2.00;;;23.10;75.20;;;;;;5066048;28;20178;-72
2021/06/28 07:38:20;;;;;;;2.35;2.22;;;23.20;74.90;;;;;;5066146;28;20335;-74
2021/06/28 07:40:46;;;;;;;3.42;1.95;;;23.30;74.20;;;;;;5062453;28;20179;-74
2021/06/28 07:43:12;;;;;;;2.55;2.45;;;23.40;75.10;;;;;;5066239;28;20183;-74
2021/06/28 07:45:38;;;;;;;3.28;2.67;;;23.50;75.40;;;;;;5066144;28;20306;-74
2021/06/28 07:48:04;;;;;;;2.75;2.60;;;23.50;75.10;;;;;;5066171;28;20256;-74
2021/06/28 07:50:30;;;;;;;3.13;2.97;;;23.60;75.20;;;;;;5065890;28;20209;-72
2021/06/28 07:52:56;;;;;;;2.75;2.53;;;23.70;74.90;;;;;;5065862;28;20640;-72
2021/06/28 07:55:21;;;;;;;2.85;2.65;;;23.80;74.10;;;;;;5061801;28;20213;-72
2021/06/28 07:57:47;;;;;;;3.05;2.85;;;23.80;74.20;;;;;;5059319;28;20204;-72
2021/06/28 08:00:16;;;;;;;3.65;3.10;;;23.90;73.40;;;;;;5065586;28;20312;-72
2021/06/28 08:02:43;;;;;;;2.70;2.60;;;24.00;73.40;;;;;;5071677;28;20648;-72
2021/06/28 08:05:09;;;;;;;2.60;2.40;;;24.00;73.50;;;;;;5070233;28;20203;-72
2021/06/28 08:07:35;;;;;;;6.00;2.95;;;24.10;73.20;;;;;;5065846;28;20575;-73
2021/06/28 08:10:04;;;;;;;2.95;2.85;;;24.20;72.40;;;;;;5065841;28;20194;-73
2021/06/28 08:12:30;;;;;;;3.20;2.72;;;24.30;72.20;;;;;;5065423;28;20181;-72
2021/06/28 08:14:55;;;;;;;3.20;3.10;;;24.30;72.50;;;;;;5065853;28;20271;-72
2021/06/28 08:17:21;;;;;;;2.78;2.78;;;24.30;70.10;;;;;;5066980;28;20206;-73
2021/06/28 08:19:47;;;;;;;3.25;3.05;;;24.30;71.10;;;;;;5061236;28;20183;-73
2021/06/28 08:22:14;;;;;;;3.08;2.97;;;24.40;71.10;;;;;;5069739;28;20594;-72
2021/06/28 08:24:40;;;;;;;2.83;2.63;;;24.40;71.20;;;;;;5069880;28;20178;-72
2021/06/28 08:27:06;;;;;;;2.65;2.53;;;24.50;70.70;;;;;;5069507;28;20240;-72
2021/06/28 08:29:32;;;;;;;3.20;3.10;;;24.60;70.60;;;;;;5069802;28;20182;-72
2021/06/28 08:31:57;;;;;;;3.38;3.28;;;24.60;70.90;;;;;;5069544;28;20229;-72
2021/06/28 08:34:23;;;;;;;3.67;3.25;;;24.70;70.10;;;;;;5069680;28;20179;-72
2021/06/28 08:36:49;;;;;;;2.70;2.60;;;24.80;69.70;;;;;;5069743;28;20185;-73
2021/06/28 08:39:16;;;;;;;3.00;2.80;;;24.90;70.50;;;;;;5069587;28;20682;-73
2021/06/28 08:41:48;;;;;;;2.65;2.50;;;25.00;70.90;;;;;;5071062;28;20252;-73
2021/06/28 08:44:15;;;;;;;2.40;2.20;;;25.00;70.00;;;;;;5069501;28;20182;-72
2021/06/28 08:46:42;;;;;;;2.85;2.75;;;25.10;69.60;;;;;;5069345;28;20214;-73
2021/06/28 08:49:08;;;;;;;3.38;2.40;;;25.20;69.60;;;;;;5068875;28;20239;-73
2021/06/28 08:51:34;;;;;;;2.17;2.08;;;25.20;69.20;;;;;;5067932;28;20186;-73
2021/06/28 08:54:05;;;;;;;3.63;2.97;;;25.30;65.50;;;;;;5068757;28;20179;-73
2021/06/28 08:56:31;;;;;;;3.22;2.47;;;25.30;67.70;;;;;;5072188;28;20659;-73
2021/06/28 08:58:58;;;;;;;2.53;2.40;;;25.40;67.60;;;;;;5070089;28;20202;-74
2021/06/28 09:01:24;;;;;;;2.20;2.10;;;25.40;66.20;;;;;;5064228;28;20764;-73
2021/06/28 09:03:50;;;;;;;1.98;1.98;;;25.50;66.30;;;;;;5095342;28;20220;-73
2021/06/28 09:06:26;;;;;;;1.52;1.52;;;25.60;65.80;;;;;;5070015;28;20214;-73
2021/06/28 09:08:54;;;;;;;3.40;1.70;;;25.60;64.10;;;;;;5069123;28;20186;-73
2021/06/28 09:11:20;;;;;;;4.63;2.25;;;25.70;64.00;;;;;;5067799;28;20711;-73
2021/06/28 09:13:48;;;;;;;1.67;1.67;;;25.70;62.50;;;;;;5069128;28;20278;-73
2021/06/28 09:16:21;;;;;;;2.22;2.20;;;25.80;63.60;;;;;;5068953;28;20190;-73
2021/06/28 09:18:51;;;;;;;3.50;2.05;;;25.90;64.20;;;;;;5061559;28;20825;-73
2021/06/28 09:21:27;;;;;;;2.50;1.95;;;26.00;63.60;;;;;;5068770;28;20182;-73
2021/06/28 09:23:54;;;;;;;3.05;1.85;;;26.10;64.20;;;;;;5069025;28;20678;-73
2021/06/28 09:26:25;;;;;;;2.50;1.85;;;26.20;63.60;;;;;;5068427;28;20293;-73
2021/06/28 09:28:53;;;;;;;1.98;1.85;;;26.30;63.60;;;;;;5068072;28;20187;-73
2021/06/28 09:31:37;;;;;;;1.67;1.58;;;26.40;62.70;;;;;;5068834;28;20262;-73
2021/06/28 09:34:04;;;;;;;1.73;1.63;;;26.60;62.80;;;;;;5069485;28;20183;-72
2021/06/28 09:36:30;;;;;;;1.70;1.60;;;26.70;63.70;;;;;;5069825;28;20521;-72
2021/06/28 09:38:56;;;;;;;1.80;1.63;;;26.90;62.00;;;;;;5070052;28;20403;-72
2021/06/28 09:41:30;;;;;;;1.50;1.50;;;27.00;62.10;;;;;;5067116;28;20218;-74
2021/06/28 09:44:05;;;;;;;1.75;1.67;;;27.10;61.60;;;;;;5068997;28;20182;-74
2021/06/28 09:46:30;;;;;;;1.80;1.80;;;27.20;61.50;;;;;;5069225;28;20245;-74
2021/06/28 09:48:56;;;;;;;2.50;1.60;;;27.30;62.20;;;;;;5069490;28;20214;-73
2021/06/28 09:51:31;;;;;;;1.58;1.50;;;27.40;62.20;;;;;;5069215;28;20193;-74
2021/06/28 09:54:07;;;;;;;2.15;1.70;;;27.60;62.00;;;;;;5068035;28;20297;-73
2021/06/28 09:56:38;;;;;;;1.83;1.75;;;27.70;61.60;;;;;;5060997;28;20641;-74
2021/06/28 09:59:24;;;;;;;2.03;1.88;;;27.80;60.70;;;;;;5069561;28;20544;-74
2021/06/28 10:01:52;;;;;;;1.90;1.90;;;27.80;58.60;;;;;;5065216;28;20560;-74
2021/06/28 10:04:45;;;;;;;1.80;1.70;;;27.80;60.60;;;;;;5078107;28;20593;-73
2021/06/28 10:07:23;;;;;;;1.77;1.48;;;28.00;60.00;;;;;;5074178;28;20282;-73
2021/06/28 10:10:22;;;;;;;1.85;1.35;;;28.10;59.60;;;;;;5073346;28;20726;-73
2021/06/28 10:13:00;;;;;;;1.50;1.50;;;28.30;57.90;;;;;;5066937;28;20265;-73
2021/06/28 10:15:38;;;;;;;1.30;1.30;;;28.50;59.30;;;;;;5067822;28;20669;-73
2021/06/28 10:18:06;;;;;;;1.30;1.20;;;28.70;56.90;;;;;;5074706;28;20178;-74
2021/06/28 10:20:34;;;;;;;1.45;1.35;;;28.90;57.50;;;;;;5067648;28;20266;-73
2021/06/28 10:23:01;;;;;;;1.48;1.15;;;29.10;55.40;;;;;;5067506;28;20215;-74
2021/06/28 10:25:29;;;;;;;1.25;1.20;;;29.30;55.90;;;;;;5067687;28;20603;-73
2021/06/28 10:27:55;;;;;;;1.20;1.20;;;29.60;56.40;;;;;;5067486;28;20183;-74
2021/06/28 10:30:24;;;;;;;1.23;1.23;;;29.90;55.70;;;;;;5067293;28;20270;-74
2021/06/28 10:32:55;;;;;;;1.20;1.20;;;30.30;56.90;;;;;;5067419;28;20647;-74
2021/06/28 10:35:26;;;;;;;1.65;1.40;;;30.60;56.40;;;;;;5067601;28;20178;-73
2021/06/28 10:37:52;;;;;;;1.60;1.50;;;31.00;56.00;;;;;;5067546;28;20676;-74
2021/06/28 10:40:23;;;;;;;1.52;1.08;;;31.30;57.20;;;;;;5063994;28;20198;-73
2021/06/28 10:42:52;;;;;;;1.10;1.00;;;31.80;52.80;;;;;;5066707;28;20193;-74
2021/06/28 10:45:41;;;;;;;2.13;1.42;;;32.20;53.10;;;;;;5066193;28;20301;-74
2021/06/28 10:48:08;;;;;;;1.08;1.08;;;32.60;50.40;;;;;;5066582;28;20198;-73
2021/06/28 10:50:54;;;;;;;1.30;1.20;;;33.10;49.30;;;;;;5067176;28;20175;-74
2021/06/28 10:53:55;;;;;;;1.23;1.23;;;33.50;48.40;;;;;;5066824;28;20186;-74
2021/06/28 10:56:31;;;;;;;1.02;1.02;;;34.00;48.50;;;;;;5027961;28;20196;-74
2021/06/28 10:58:59;;;;;;;1.00;1.00;;;34.60;47.00;;;;;;5031323;28;20201;-74
2021/06/28 11:01:45;;;;;;;1.38;1.13;;;35.20;48.80;;;;;;5030789;28;20196;-74
2021/06/28 11:04:12;;;;;;;0.88;0.88;;;35.90;47.50;;;;;;5020506;28;20207;-74
2021/06/28 11:06:52;;;;;;;0.90;0.90;;;36.60;46.60;;;;;;5019370;28;20309;-73
2021/06/28 11:09:41;;;;;;;1.15;1.15;;;37.20;46.30;;;;;;5022900;28;20183;-73
2021/06/28 11:12:32;;;;;;;1.15;1.15;;;38.00;45.80;;;;;;4944697;28;20731;-72
2021/06/28 11:15:05;;;;;;;1.02;1.02;;;38.50;44.20;;;;;;4946972;28;20210;-72
2021/06/28 11:18:06;;;;;;;1.15;1.15;;;38.70;46.50;;;;;;4952129;28;20374;-72
2021/06/28 11:20:39;;;;;;;0.90;0.90;;;38.30;42.80;;;;;;4905837;29;20210;-72
2021/06/28 11:23:14;;;;;;;1.50;1.40;;;38.30;47.60;;;;;;4904783;29;20672;-72
2021/06/28 11:25:51;;;;;;;0.80;0.80;;;38.30;44.70;;;;;;4905176;29;20304;-72
2021/06/28 11:28:27;;;;;;;0.98;0.98;;;38.70;44.50;;;;;;4906893;29;20207;-72
2021/06/28 11:30:57;;;;;;;1.00;1.00;;;39.10;46.60;;;;;;4906699;29;20187;-72
2021/06/28 11:33:44;;;;;;;1.00;1.00;;;39.50;45.00;;;;;;4928722;28;20198;-72
2021/06/28 11:36:29;;;;;;;2.67;0.93;;;39.90;43.60;;;;;;4947447;28;20201;-72
2021/06/28 11:39:16;;;;;;;1.30;1.30;;;40.20;42.00;;;;;;4945012;28;20190;-72
2021/06/28 11:41:42;;;;;;;3.08;1.30;;;40.30;43.70;;;;;;4917004;29;20202;-72
2021/06/28 11:44:27;;;;;;;0.90;0.90;;;40.30;41.90;;;;;;4917881;29;20258;-72
2021/06/28 11:46:53;;;;;;;0.82;0.82;;;40.50;42.40;;;;;;4916346;29;20223;-72
2021/06/28 11:49:24;;;;;;;0.85;0.85;;;40.60;41.60;;;;;;4931492;28;20205;-73
2021/06/28 11:51:52;;;;;;;1.20;1.20;;;40.50;43.50;;;;;;4931271;29;20196;-71
2021/06/28 11:54:20;;;;;;;1.73;0.77;;;40.30;44.10;;;;;;4963450;28;20678;-72
2021/06/28 11:56:52;;;;;;;0.75;0.75;;;40.10;43.90;;;;;;5031888;28;20195;-72
2021/06/28 11:59:23;;;;;;;0.77;0.77;;;40.10;44.40;;;;;;5018276;28;20626;-73
2021/06/28 12:02:01;;;;;;;0.82;0.82;;;40.20;43.70;;;;;;5034960;28;20190;-72
2021/06/28 12:04:28;;;;;;;2.13;0.65;;;40.60;41.70;;;;;;5019508;28;20266;-73
2021/06/28 12:06:55;;;;;;;2.47;0.70;;;40.80;39.60;;;;;;5032808;28;20223;-72
2021/06/28 12:09:31;;;;;;;0.80;0.80;;;40.80;40.30;;;;;;5030654;28;20238;-72
2021/06/28 12:11:58;;;;;;;0.50;0.50;;;40.50;41.40;;;;;;5011749;28;20674;-72
2021/06/28 12:14:37;;;;;;;0.40;0.40;;;40.30;39.10;;;;;;5032794;28;20199;-74
2021/06/28 12:17:17;;;;;;;0.50;0.50;;;40.10;41.00;;;;;;5033171;28;20182;-72
2021/06/28 12:19:46;;;;;;;0.50;0.50;;;40.20;39.60;;;;;;5056760;28;20201;-72
2021/06/28 12:22:15;;;;;;;0.77;0.77;;;40.10;41.80;;;;;;5073460;28;20219;-72
2021/06/28 12:24:42;;;;;;;1.15;1.00;;;40.10;42.40;;;;;;5067659;28;20233;-72
2021/06/28 12:27:09;;;;;;;0.60;0.60;;;40.20;42.70;;;;;;5072002;28;20217;-72
2021/06/28 12:29:47;;;;;;;0.80;0.80;;;40.30;41.10;;;;;;5073009;28;20550;-72
2021/06/28 12:32:28;;;;;;;3.22;0.95;;;40.20;41.00;;;;;;5064691;28;20265;-72
2021/06/28 12:34:59;;;;;;;2.25;0.95;;;40.10;40.30;;;;;;5069571;28;20188;-72
2021/06/28 12:37:30;;;;;;;0.85;0.85;;;40.60;40.90;;;;;;5067142;28;20190;-73
2021/06/28 12:40:15;;;;;;;4.13;0.73;;;41.20;41.00;;;;;;5065605;28;20911;-72
2021/06/28 12:43:01;;;;;;;0.50;0.50;;;41.80;39.40;;;;;;5069764;28;20173;-72
2021/06/28 12:45:38;;;;;;;1.27;0.65;;;42.40;39.40;;;;;;5068349;28;20548;-72
2021/06/28 12:48:07;;;;;;;1.85;0.50;;;43.20;39.80;;;;;;5066890;28;20185;-70
2021/06/28 12:50:37;;;;;;;2.90;0.77;;;43.70;39.10;;;;;;5068100;28;20275;-71
2021/06/28 12:53:13;;;;;;;1.17;0.82;;;44.30;39.50;;;;;;5076990;28;20338;-71
2021/06/28 12:55:39;;;;;;;1.38;0.90;;;44.80;38.90;;;;;;5064683;28;20216;-71